Time;durP1;ratioP1;P1;durP2;ratioP2;P2;SDS_P1;SDS_P2;PMS_P1;PMS_P2;Temp;Humidity;BMP_temperature;BMP_pressure;BME280_temperature;BME280_humidity;BME280_pressure;Samples;Min_cycle;Max_cycle;Signal;HPM_P1;HPM_P2
2024/01/08 00:02:09;;;;;;;13.30;8.38;;;;;;;-7.06;75.96;102219.88;7397536;19;20418;-70
2024/01/08 00:04:38;;;;;;;17.27;8.77;;;;;;;-7.08;77.19;102216.31;7400027;19;20074;-70
2024/01/08 00:07:06;;;;;;;15.88;9.02;;;;;;;-7.13;75.78;102227.84;7397517;19;20032;-69
2024/01/08 00:09:35;;;;;;;14.85;8.65;;;;;;;-7.18;76.35;102238.50;7398957;19;20489;-69
2024/01/08 00:12:06;;;;;;;17.10;9.07;;;;;;;-7.26;76.23;102232.84;7399776;19;20011;-69
2024/01/08 00:14:35;;;;;;;16.42;8.85;;;;;;;-7.31;77.98;102224.84;7398793;19;20074;-69
2024/01/08 00:17:03;;;;;;;16.52;8.98;;;;;;;-7.39;75.82;102231.91;7397902;19;20098;-70
2024/01/08 00:19:32;;;;;;;15.45;8.95;;;;;;;-7.44;75.49;102233.22;7398796;19;20027;-69
2024/01/08 00:22:00;;;;;;;17.27;9.27;;;;;;;-7.45;77.67;102234.00;7397742;19;20082;-71
2024/01/08 00:24:35;;;;;;;16.48;9.75;;;;;;;-7.50;77.06;102234.44;7399028;19;20485;-69
2024/01/08 00:27:06;;;;;;;14.48;8.90;;;;;;;-7.54;76.90;102238.41;7399138;19;20412;-73
2024/01/08 00:29:35;;;;;;;18.08;9.70;;;;;;;-7.55;77.42;102242.59;7399147;19;20090;-73
2024/01/08 00:32:05;;;;;;;13.60;8.20;;;;;;;-7.60;77.40;102249.03;7398791;19;20010;-69
2024/01/08 00:34:33;;;;;;;15.25;9.30;;;;;;;-7.61;78.92;102243.81;7399024;19;20564;-69
2024/01/08 00:37:02;;;;;;;15.30;9.38;;;;;;;-7.69;75.73;102248.31;7398642;19;20023;-68
2024/01/08 00:39:31;;;;;;;17.00;9.55;;;;;;;-7.75;79.52;102250.41;7398503;19;20010;-69
2024/01/08 00:41:59;;;;;;;17.90;8.90;;;;;;;-7.77;80.01;102250.28;7396122;19;20016;-69
2024/01/08 00:44:30;;;;;;;19.02;10.43;;;;;;;-7.76;78.69;102259.72;7398773;19;20014;-69
2024/01/08 00:46:59;;;;;;;20.98;9.55;;;;;;;-7.78;78.15;102260.38;7396917;19;20024;-68
2024/01/08 00:49:27;;;;;;;16.40;8.95;;;;;;;-7.82;77.09;102259.25;7398214;19;20094;-68
2024/01/08 00:51:55;;;;;;;13.23;8.13;;;;;;;-7.86;77.12;102260.66;7398118;19;20010;-68
2024/01/08 00:54:24;;;;;;;14.90;9.02;;;;;;;-7.89;78.21;102257.84;7398368;19;20074;-69
2024/01/08 00:56:52;;;;;;;15.50;8.45;;;;;;;-7.93;76.25;102260.06;7398028;19;20074;-69
2024/01/08 00:59:21;;;;;;;15.85;9.25;;;;;;;-7.93;77.70;102262.63;7396108;19;20014;-68
2024/01/08 01:01:52;;;;;;;19.55;9.07;;;;;;;-7.96;78.46;102264.91;7396502;19;20031;-71
2024/01/08 01:04:20;;;;;;;14.55;8.82;;;;;;;-7.92;79.62;102266.94;7398505;19;20079;-68
2024/01/08 01:06:49;;;;;;;14.82;8.63;;;;;;;-7.90;80.04;102270.47;7397621;19;20421;-69
2024/01/08 01:09:17;;;;;;;15.10;8.40;;;;;;;-7.84;80.76;102273.50;7397701;19;20014;-68
2024/01/08 01:11:46;;;;;;;17.83;9.48;;;;;;;-7.80;79.79;102275.53;7397820;19;20007;-69
2024/01/08 01:14:14;;;;;;;16.52;8.82;;;;;;;-7.77;80.19;102278.31;7397437;19;20014;-68
2024/01/08 01:16:43;;;;;;;15.95;9.15;;;;;;;-7.75;77.55;102283.53;7396804;19;20081;-67
2024/01/08 01:19:14;;;;;;;14.57;9.30;;;;;;;-7.76;79.33;102276.66;7397371;19;20014;-67
2024/01/08 01:21:42;;;;;;;16.10;9.05;;;;;;;-7.75;79.62;102283.53;7396125;19;20013;-67
2024/01/08 01:24:17;;;;;;;15.05;9.57;;;;;;;-7.74;79.69;102286.19;7396672;19;20390;-67
2024/01/08 01:26:45;;;;;;;15.45;9.63;;;;;;;-7.72;79.34;102284.66;7396135;19;20062;-68
2024/01/08 01:29:14;;;;;;;17.17;9.40;;;;;;;-7.71;80.27;102286.44;7397090;19;20070;-68
2024/01/08 01:31:42;;;;;;;14.70;9.50;;;;;;;-7.70;80.77;102287.31;7396737;19;20006;-67
2024/01/08 01:34:14;;;;;;;14.93;8.68;;;;;;;-7.69;79.43;102286.56;7395374;19;20377;-67
2024/01/08 01:36:44;;;;;;;17.40;9.80;;;;;;;-7.69;79.27;102289.97;7397093;19;20007;-68
2024/01/08 01:39:13;;;;;;;14.50;8.70;;;;;;;-7.69;80.09;102295.06;7397139;19;20006;-68
2024/01/08 01:41:41;;;;;;;17.17;8.70;;;;;;;-7.70;77.49;102295.84;7395391;19;20371;-68
2024/01/08 01:44:10;;;;;;;16.42;9.75;;;;;;;-7.72;78.19;102291.41;7394629;19;20023;-67
2024/01/08 01:46:42;;;;;;;17.70;9.15;;;;;;;-7.72;79.90;102288.84;7394525;19;20484;-68
2024/01/08 01:49:16;;;;;;;16.73;9.80;;;;;;;-7.73;79.87;102285.44;7395218;19;20075;-68
2024/01/08 01:51:46;;;;;;;15.82;9.48;;;;;;;-7.71;79.64;102293.19;7397067;19;20015;-68
2024/01/08 01:54:16;;;;;;;14.48;9.20;;;;;;;-7.71;77.75;102289.00;7397361;19;20395;-68
2024/01/08 01:56:47;;;;;;;17.20;9.20;;;;;;;-7.71;79.31;102293.19;7396879;19;20046;-68
2024/01/08 01:59:19;;;;;;;17.23;9.50;;;;;;;-7.70;80.36;102293.28;7395034;19;20014;-68
2024/01/08 02:01:48;;;;;;;16.40;9.80;;;;;;;-7.74;77.04;102288.75;7395616;19;20031;-68
2024/01/08 02:04:20;;;;;;;14.05;8.45;;;;;;;-7.80;77.59;102285.72;7395774;19;20010;-68
2024/01/08 02:06:48;;;;;;;18.30;9.73;;;;;;;-7.81;79.46;102288.16;7395760;19;20367;-68
2024/01/08 02:09:16;;;;;;;16.25;9.23;;;;;;;-7.85;79.55;102299.75;7395549;19;20006;-68
2024/01/08 02:11:45;;;;;;;17.75;9.63;;;;;;;-7.86;80.65;102297.97;7396388;19;20074;-68
2024/01/08 02:14:15;;;;;;;17.95;9.15;;;;;;;-7.89;78.11;102308.81;7394992;19;20033;-68
2024/01/08 02:16:44;;;;;;;17.80;9.68;;;;;;;-7.93;80.15;102295.75;7394483;19;20366;-68
2024/01/08 02:19:13;;;;;;;15.32;8.93;;;;;;;-7.93;79.45;102298.28;7393528;19;20484;-68
2024/01/08 02:21:44;;;;;;;17.63;9.70;;;;;;;-7.99;77.94;102302.91;7395529;19;20023;-68
2024/01/08 02:24:16;;;;;;;18.30;10.00;;;;;;;-8.02;79.53;102306.09;7396028;19;20014;-68
2024/01/08 02:26:44;;;;;;;16.45;10.15;;;;;;;-8.06;78.61;102304.97;7395936;19;20021;-68
2024/01/08 02:29:12;;;;;;;16.90;9.23;;;;;;;-8.09;78.56;102311.47;7394837;19;20092;-68
2024/01/08 02:31:41;;;;;;;14.98;9.38;;;;;;;-8.12;80.79;102308.69;7395390;19;20082;-69
2024/01/08 02:34:09;;;;;;;19.40;10.10;;;;;;;-8.16;80.53;102310.09;7394910;19;20550;-68
2024/01/08 02:36:38;;;;;;;18.42;9.30;;;;;;;-8.17;80.97;102310.84;7400376;19;20077;-68
2024/01/08 02:39:06;;;;;;;17.40;9.55;;;;;;;-8.18;81.13;102311.63;7409398;19;20006;-68
2024/01/08 02:41:37;;;;;;;15.90;10.35;;;;;;;-8.19;80.38;102317.47;7408565;19;20019;-69
2024/01/08 02:44:06;;;;;;;16.30;10.10;;;;;;;-8.22;81.14;102325.75;7409754;19;20010;-68
2024/01/08 02:46:35;;;;;;;19.27;9.15;;;;;;;-8.23;79.35;102321.44;7407361;19;20086;-68
2024/01/08 02:49:03;;;;;;;16.70;9.18;;;;;;;-8.25;80.42;102330.63;7409183;19;20342;-68
2024/01/08 02:51:32;;;;;;;17.83;9.75;;;;;;;-8.29;79.90;102327.69;7409035;19;20038;-68
2024/01/08 02:54:00;;;;;;;18.23;10.82;;;;;;;-8.29;80.90;102337.88;7409042;19;20465;-68
2024/01/08 02:56:29;;;;;;;14.35;9.57;;;;;;;-8.31;81.61;102341.94;7408973;19;20077;-69
2024/01/08 02:59:05;;;;;;;17.90;8.65;;;;;;;-8.33;80.91;102333.31;7408906;19;20024;-69
2024/01/08 03:01:36;;;;;;;14.85;8.48;;;;;;;-8.35;81.19;102338.28;7408494;19;20010;-69
2024/01/08 03:04:04;;;;;;;20.13;10.00;;;;;;;-8.37;81.13;102334.72;7409285;19;20010;-69
2024/01/08 03:06:33;;;;;;;16.00;9.68;;;;;;;-8.38;80.57;102344.03;7408302;19;20367;-68
2024/01/08 03:09:01;;;;;;;16.60;9.73;;;;;;;-8.40;81.69;102340.47;7406290;19;20023;-69
2024/01/08 03:11:30;;;;;;;19.65;10.25;;;;;;;-8.43;80.16;102341.88;7406875;19;20377;-68
2024/01/08 03:14:01;;;;;;;20.92;10.88;;;;;;;-8.46;81.56;102350.19;7409620;19;20457;-69
2024/01/08 03:16:29;;;;;;;20.98;10.57;;;;;;;-8.46;82.32;102354.38;7409466;19;20095;-70
2024/01/08 03:18:58;;;;;;;20.63;10.23;;;;;;;-8.49;82.21;102355.03;7407894;19;20114;-68
2024/01/08 03:21:26;;;;;;;18.45;9.93;;;;;;;-8.47;81.32;102367.88;7406052;19;20014;-68
2024/01/08 03:23:55;;;;;;;16.80;9.52;;;;;;;-8.49;82.39;102367.75;7408242;19;20085;-69
2024/01/08 03:26:23;;;;;;;20.13;10.27;;;;;;;-8.48;82.24;102371.19;7407724;19;20006;-68
2024/01/08 03:28:51;;;;;;;14.68;9.10;;;;;;;-8.48;82.73;102377.16;7407786;19;20007;-69
2024/01/08 03:31:23;;;;;;;21.48;11.73;;;;;;;-8.48;82.56;102366.97;7406059;19;20024;-69
2024/01/08 03:33:51;;;;;;;15.43;9.20;;;;;;;-8.48;81.80;102371.19;7407984;19;20417;-68
2024/01/08 03:36:19;;;;;;;20.13;9.80;;;;;;;-8.49;82.64;102375.41;7407255;19;20007;-68
2024/01/08 03:38:48;;;;;;;14.93;9.65;;;;;;;-8.50;82.68;102378.69;7407557;19;20006;-69
2024/01/08 03:41:18;;;;;;;18.85;10.00;;;;;;;-8.54;81.48;102377.56;7405403;19;20014;-68
2024/01/08 03:43:46;;;;;;;16.77;9.00;;;;;;;-8.56;82.38;102390.91;7405539;19;20014;-69
2024/01/08 03:46:24;;;;;;;19.20;10.52;;;;;;;-8.59;81.44;102391.56;7407271;19;20383;-68
2024/01/08 03:48:52;;;;;;;18.10;10.65;;;;;;;-8.60;81.87;102396.53;7401007;19;20090;-68
2024/01/08 03:51:21;;;;;;;18.67;10.43;;;;;;;-8.62;81.50;102401.47;7397691;19;20074;-69
2024/01/08 03:53:49;;;;;;;17.27;9.70;;;;;;;-8.65;79.70;102402.91;7397881;19;20086;-68
2024/01/08 03:56:18;;;;;;;17.90;9.60;;;;;;;-8.68;81.49;102399.31;7399538;19;20548;-68
2024/01/08 03:58:46;;;;;;;18.55;9.32;;;;;;;-8.71;78.39;102401.59;7400330;19;20086;-68
2024/01/08 04:01:15;;;;;;;14.13;9.25;;;;;;;-8.73;80.55;102408.22;7397371;19;20517;-69
2024/01/08 04:03:46;;;;;;;17.65;8.90;;;;;;;-8.74;79.98;102418.28;7399562;19;20011;-68
2024/01/08 04:06:14;;;;;;;18.48;9.95;;;;;;;-8.77;80.24;102413.84;7400389;19;20011;-69
2024/01/08 04:08:43;;;;;;;16.05;9.85;;;;;;;-8.79;78.70;102410.25;7400337;19;20010;-69
2024/01/08 04:11:11;;;;;;;21.63;9.18;;;;;;;-8.82;78.43;102407.44;7397879;19;20030;-69
2024/01/08 04:13:40;;;;;;;16.50;10.35;;;;;;;-8.84;78.99;102417.50;7399779;19;20094;-69
2024/01/08 04:16:09;;;;;;;17.92;9.52;;;;;;;-8.87;80.14;102417.25;7396799;19;20010;-68
2024/01/08 04:18:38;;;;;;;18.52;9.68;;;;;;;-8.88;79.38;102419.69;7397797;19;20089;-68
2024/01/08 04:21:09;;;;;;;16.05;9.57;;;;;;;-8.89;77.42;102428.06;7397144;19;20014;-68
2024/01/08 04:23:37;;;;;;;16.55;9.63;;;;;;;-8.91;79.41;102424.50;7397532;19;20432;-68
2024/01/08 04:26:06;;;;;;;16.65;9.15;;;;;;;-8.91;80.24;102442.28;7398960;19;20007;-69
2024/01/08 04:28:34;;;;;;;18.38;9.75;;;;;;;-8.92;81.18;102437.97;7399042;19;20023;-69
2024/01/08 04:31:02;;;;;;;18.40;9.40;;;;;;;-8.92;79.66;102435.41;7397246;19;20031;-69
2024/01/08 04:33:31;;;;;;;19.42;10.00;;;;;;;-8.92;80.19;102443.06;7398788;19;20331;-68
2024/01/08 04:35:59;;;;;;;21.95;10.38;;;;;;;-8.95;80.77;102448.78;7398628;19;20014;-68
2024/01/08 04:38:30;;;;;;;17.08;10.52;;;;;;;-8.97;78.36;102452.84;7396734;19;20077;-68
2024/01/08 04:40:59;;;;;;;19.20;10.80;;;;;;;-9.01;78.20;102443.16;7396329;19;20014;-68
2024/01/08 04:43:27;;;;;;;19.90;10.93;;;;;;;-9.05;76.83;102454.75;7396155;19;20018;-68
2024/01/08 04:45:56;;;;;;;18.38;10.13;;;;;;;-9.07;78.56;102461.34;7398065;19;20027;-68
2024/01/08 04:48:24;;;;;;;16.80;10.23;;;;;;;-9.11;77.89;102466.94;7398371;19;20027;-68
2024/01/08 04:50:53;;;;;;;15.40;9.50;;;;;;;-9.14;77.93;102459.03;7396860;19;20018;-68
2024/01/08 04:53:21;;;;;;;18.42;9.35;;;;;;;-9.18;77.28;102462.97;7398520;19;20031;-68
2024/01/08 04:55:52;;;;;;;15.25;9.32;;;;;;;-9.18;77.07;102469.72;7398274;19;20387;-68
2024/01/08 04:58:21;;;;;;;21.02;9.60;;;;;;;-9.18;79.24;102472.25;7398749;19;20015;-68
2024/01/08 05:00:49;;;;;;;15.65;9.68;;;;;;;-9.17;79.96;102471.50;7396518;19;20039;-68
2024/01/08 05:03:18;;;;;;;17.08;10.00;;;;;;;-9.18;79.81;102469.72;7396492;19;20015;-67
2024/01/08 05:05:46;;;;;;;16.30;10.15;;;;;;;-9.18;80.05;102474.78;7397895;19;20031;-68
2024/01/08 05:08:15;;;;;;;19.75;10.05;;;;;;;-9.19;80.10;102476.44;7397951;19;20032;-68
2024/01/08 05:10:43;;;;;;;19.65;10.45;;;;;;;-9.18;80.65;102479.88;7396402;19;20039;-68
2024/01/08 05:13:14;;;;;;;16.65;9.73;;;;;;;-9.19;79.49;102484.06;7396709;19;20018;-68
2024/01/08 05:15:43;;;;;;;20.00;11.10;;;;;;;-9.24;78.39;102482.75;7398003;19;20014;-68
2024/01/08 05:18:18;;;;;;;19.30;9.77;;;;;;;-9.21;78.68;102484.69;7394408;19;20018;-68
2024/01/08 05:20:52;;;;;;;16.67;9.35;;;;;;;-9.24;79.06;102492.06;7396001;19;20014;-68
2024/01/08 05:23:21;;;;;;;17.63;9.57;;;;;;;-9.26;79.34;102494.47;7395413;19;20027;-69
2024/01/08 05:25:49;;;;;;;20.50;10.43;;;;;;;-9.26;81.29;102498.66;7394668;19;20011;-69
2024/01/08 05:28:21;;;;;;;17.27;9.55;;;;;;;-9.29;77.83;102493.31;7397264;19;20011;-68
2024/01/08 05:30:49;;;;;;;17.95;10.02;;;;;;;-9.34;75.78;102503.97;7395978;19;20015;-69
2024/01/08 05:33:18;;;;;;;17.13;10.13;;;;;;;-9.37;77.18;102501.16;7396856;19;20023;-68
2024/01/08 05:35:47;;;;;;;20.45;10.52;;;;;;;-9.41;79.77;102494.03;7396245;19;20015;-69
2024/01/08 05:38:15;;;;;;;19.98;10.13;;;;;;;-9.38;79.95;102507.00;7396523;19;20020;-69
2024/01/08 05:40:44;;;;;;;21.45;10.73;;;;;;;-9.38;79.21;102506.13;7394358;19;20028;-69
2024/01/08 05:43:13;;;;;;;20.20;10.32;;;;;;;-9.41;76.60;102514.38;7394664;19;20082;-68
2024/01/08 05:45:44;;;;;;;18.98;10.50;;;;;;;-9.41;79.53;102516.91;7395808;19;20322;-69
2024/01/08 05:48:12;;;;;;;20.73;10.68;;;;;;;-9.42;79.26;102516.78;7394281;19;20485;-68
2024/01/08 05:50:41;;;;;;;21.00;11.93;;;;;;;-9.45;76.91;102519.94;7394901;19;20014;-69
2024/01/08 05:53:09;;;;;;;20.30;10.95;;;;;;;-9.47;78.34;102520.56;7396206;19;20018;-68
2024/01/08 05:55:38;;;;;;;19.65;10.82;;;;;;;-9.51;77.89;102519.41;7395503;19;20011;-69
2024/01/08 05:58:07;;;;;;;23.35;11.98;;;;;;;-9.51;78.66;102529.56;7393589;19;20019;-69
2024/01/08 06:00:35;;;;;;;18.60;11.70;;;;;;;-9.50;81.25;102528.81;7393341;19;20031;-69
2024/01/08 06:03:06;;;;;;;20.27;11.10;;;;;;;-9.50;80.85;102529.69;7393369;19;20493;-68
2024/01/08 06:05:35;;;;;;;21.10;10.80;;;;;;;-9.45;81.27;102529.19;7395261;19;20505;-69
2024/01/08 06:08:03;;;;;;;21.20;11.20;;;;;;;-9.45;78.35;102527.56;7395484;19;20025;-69
2024/01/08 06:10:32;;;;;;;21.17;11.70;;;;;;;-9.47;78.31;102536.69;7393072;19;20477;-69
2024/01/08 06:13:00;;;;;;;21.85;11.93;;;;;;;-9.47;77.92;102538.34;7393562;19;20027;-69
2024/01/08 06:15:29;;;;;;;17.33;10.68;;;;;;;-9.53;77.08;102529.44;7393306;19;20371;-69
2024/01/08 06:17:57;;;;;;;18.70;10.52;;;;;;;-9.55;79.14;102540.22;7393641;19;20022;-69
2024/01/08 06:20:28;;;;;;;19.40;9.88;;;;;;;-9.57;78.13;102539.19;7393645;19;20014;-68
2024/01/08 06:22:57;;;;;;;18.27;9.73;;;;;;;-9.61;76.64;102548.19;7393236;19;20024;-69
2024/01/08 06:25:25;;;;;;;19.33;10.73;;;;;;;-9.61;78.69;102549.84;7394753;19;20010;-69
2024/01/08 06:27:53;;;;;;;16.75;10.43;;;;;;;-9.63;76.77;102548.81;7394715;19;20027;-69
2024/01/08 06:30:22;;;;;;;17.02;10.27;;;;;;;-9.66;77.15;102554.50;7391728;19;20480;-68
2024/01/08 06:32:50;;;;;;;20.50;10.70;;;;;;;-9.67;77.82;102555.25;7393311;19;20014;-69
2024/01/08 06:35:19;;;;;;;17.45;10.63;;;;;;;-9.67;79.33;102557.78;7394646;19;20027;-69
2024/01/08 06:37:50;;;;;;;22.75;10.48;;;;;;;-9.68;77.25;102563.63;7394464;19;20489;-69
2024/01/08 06:40:18;;;;;;;23.50;11.10;;;;;;;-9.69;79.05;102570.38;7392873;19;20006;-69
2024/01/08 06:42:47;;;;;;;19.98;10.32;;;;;;;-9.71;77.44;102574.41;7394819;19;20078;-69
2024/01/08 06:45:16;;;;;;;20.38;10.80;;;;;;;-9.74;77.21;102581.75;7394518;19;20395;-69
2024/01/08 06:47:44;;;;;;;20.33;11.15;;;;;;;-9.75;77.94;102579.97;7394817;19;20031;-69
2024/01/08 06:50:13;;;;;;;19.42;10.48;;;;;;;-9.78;79.25;102579.72;7393931;19;20472;-69
2024/01/08 06:52:41;;;;;;;19.42;9.85;;;;;;;-9.77;79.59;102589.09;7394824;19;20011;-69
2024/01/08 06:55:13;;;;;;;18.73;10.57;;;;;;;-9.77;80.67;102598.38;7394521;19;20014;-69
2024/01/08 06:57:41;;;;;;;20.38;10.90;;;;;;;-9.80;79.40;102600.66;7394445;19;20066;-69
2024/01/08 07:00:11;;;;;;;20.58;10.60;;;;;;;-9.78;79.37;102600.03;7393546;19;20019;-69
2024/01/08 07:02:40;;;;;;;21.27;12.10;;;;;;;-9.80;78.66;102604.06;7394158;19;20011;-69
2024/01/08 07:05:09;;;;;;;16.65;9.70;;;;;;;-9.81;79.71;102604.81;7393495;19;20017;-69
2024/01/08 07:07:39;;;;;;;19.33;10.68;;;;;;;-9.81;80.42;102612.44;7393780;19;20044;-70
2024/01/08 07:10:09;;;;;;;17.92;10.63;;;;;;;-9.80;79.73;102621.84;7392465;19;20015;-69
2024/01/08 07:12:40;;;;;;;19.48;10.15;;;;;;;-9.80;79.68;102620.97;7394152;19;20036;-68
2024/01/08 07:15:09;;;;;;;18.42;10.70;;;;;;;-9.82;80.73;102626.81;7394367;19;20014;-69
2024/01/08 07:17:37;;;;;;;20.52;10.10;;;;;;;-9.82;80.99;102625.88;7392259;19;20019;-69
2024/01/08 07:20:07;;;;;;;18.75;9.75;;;;;;;-9.83;80.01;102634.25;7392373;19;20031;-69
2024/01/08 07:22:35;;;;;;;21.77;10.48;;;;;;;-9.84;81.11;102635.91;7392794;19;20505;-69
2024/01/08 07:25:04;;;;;;;18.33;9.85;;;;;;;-9.82;81.40;102641.13;7399646;19;20536;-69
2024/01/08 07:27:33;;;;;;;18.08;11.20;;;;;;;-9.82;80.84;102644.59;7398284;19;20019;-69
2024/01/08 07:30:04;;;;;;;19.90;11.95;;;;;;;-9.81;81.65;102642.94;7399773;19;20467;-69
2024/01/08 07:32:32;;;;;;;24.73;12.60;;;;;;;-9.81;82.34;102640.38;7398629;19;20014;-69
2024/01/08 07:35:02;;;;;;;28.00;11.75;;;;;;;-9.78;82.04;102647.38;7398175;19;20018;-69
2024/01/08 07:37:30;;;;;;;18.50;10.70;;;;;;;-9.79;82.98;102649.03;7400715;19;20373;-69
2024/01/08 07:39:59;;;;;;;18.90;10.48;;;;;;;-9.77;81.08;102647.53;7397339;19;20031;-69
2024/01/08 07:42:28;;;;;;;17.95;11.07;;;;;;;-9.76;83.05;102651.84;7399713;19;20010;-69
2024/01/08 07:44:56;;;;;;;17.23;10.50;;;;;;;-9.73;83.25;102653.78;7397492;19;20010;-69
2024/01/08 07:47:27;;;;;;;22.33;11.13;;;;;;;-9.68;83.88;102661.09;7399769;19;20010;-69
2024/01/08 07:49:56;;;;;;;18.70;10.38;;;;;;;-9.63;83.31;102656.41;7399277;19;20432;-69
2024/01/08 07:52:25;;;;;;;19.83;10.43;;;;;;;-9.60;83.33;102658.31;7397492;19;20014;-69
2024/01/08 07:54:53;;;;;;;20.23;11.25;;;;;;;-9.58;83.70;102661.91;7400061;19;20332;-69
2024/01/08 07:57:21;;;;;;;20.73;11.85;;;;;;;-9.58;83.08;102667.00;7399920;19;20014;-69
2024/01/08 07:59:50;;;;;;;19.27;10.90;;;;;;;-9.57;83.35;102668.78;7397117;19;20014;-68
2024/01/08 08:02:18;;;;;;;17.63;10.32;;;;;;;-9.56;83.12;102671.47;7399875;19;20027;-69
2024/01/08 08:04:50;;;;;;;20.25;11.48;;;;;;;-9.56;83.75;102673.13;7398109;19;20022;-69
2024/01/08 08:07:19;;;;;;;22.95;11.82;;;;;;;-9.54;83.81;102672.50;7399664;19;20011;-68
2024/01/08 08:09:47;;;;;;;20.88;11.55;;;;;;;-9.52;83.74;102677.72;7399413;19;20015;-69
2024/01/08 08:12:16;;;;;;;18.65;10.20;;;;;;;-9.51;84.03;102684.59;7398921;19;20007;-68
2024/01/08 08:14:47;;;;;;;20.88;11.60;;;;;;;-9.50;83.81;102684.72;7396841;19;20422;-69
2024/01/08 08:17:22;;;;;;;19.35;10.48;;;;;;;-9.48;84.31;102692.47;7399205;19;20045;-68
2024/01/08 08:19:54;;;;;;;18.77;10.68;;;;;;;-9.47;82.40;102694.28;7398769;19;20031;-69
2024/01/08 08:22:23;;;;;;;20.10;10.60;;;;;;;-9.48;82.17;102697.56;7399072;19;20371;-69
2024/01/08 08:24:52;;;;;;;20.05;11.00;;;;;;;-9.48;82.95;102702.66;7396414;19;20007;-69
2024/01/08 08:27:21;;;;;;;25.13;10.80;;;;;;;-9.46;83.43;102698.63;7398952;19;20505;-69
2024/01/08 08:30:16;;;;;;;19.23;10.90;;;;;;;-9.43;83.98;102708.16;7397412;19;20030;-68
2024/01/08 08:32:44;;;;;;;17.75;10.77;;;;;;;-9.42;82.97;102707.41;7398528;19;20007;-69
2024/01/08 08:35:15;;;;;;;18.60;10.32;;;;;;;-9.44;82.54;102703.81;7397617;19;20027;-69
2024/01/08 08:37:44;;;;;;;21.17;10.50;;;;;;;-9.38;82.39;102720.53;7396615;19;20387;-70
2024/01/08 08:40:14;;;;;;;15.77;9.88;;;;;;;-9.36;83.38;102718.16;7397128;19;20010;-70
2024/01/08 08:42:43;;;;;;;19.63;10.38;;;;;;;-9.31;83.65;102723.63;7398588;19;20018;-68
2024/01/08 08:45:12;;;;;;;20.00;10.30;;;;;;;-9.30;83.12;102725.41;7398323;19;20013;-68
2024/01/08 08:47:40;;;;;;;22.70;10.95;;;;;;;-9.29;82.75;102720.47;7398701;19;20022;-68
2024/01/08 08:50:09;;;;;;;19.80;10.60;;;;;;;-9.26;81.97;102724.94;7397017;19;20035;-68
2024/01/08 08:52:43;;;;;;;18.13;9.60;;;;;;;-9.24;82.77;102728.50;7397540;19;20029;-68
2024/01/08 08:55:12;;;;;;;16.63;9.88;;;;;;;-9.21;82.63;102741.50;7398576;19;20017;-68
2024/01/08 08:57:41;;;;;;;18.95;9.85;;;;;;;-9.18;83.23;102729.06;7398357;19;20031;-68
2024/01/08 09:00:17;;;;;;;20.55;11.63;;;;;;;-9.14;83.79;102736.22;7396036;19;20014;-68
2024/01/08 09:02:45;;;;;;;15.38;9.57;;;;;;;-9.10;82.31;102735.72;7398891;19;20015;-69
2024/01/08 09:05:14;;;;;;;20.55;11.05;;;;;;;-9.07;82.82;102740.19;7395769;19;20019;-68
2024/01/08 09:07:42;;;;;;;16.70;10.43;;;;;;;-9.05;83.08;102743.78;7395389;19;20014;-68
2024/01/08 09:10:11;;;;;;;23.75;12.52;;;;;;;-9.02;82.77;102750.03;7396352;19;20018;-68
2024/01/08 09:12:39;;;;;;;22.42;12.65;;;;;;;-8.97;83.96;102745.38;7395400;19;20014;-68
2024/01/08 09:15:09;;;;;;;23.65;11.45;;;;;;;-8.92;81.97;102758.50;7396683;19;20015;-68
2024/01/08 09:17:43;;;;;;;20.70;11.30;;;;;;;-8.90;82.14;102757.00;7396228;19;20878;-68
2024/01/08 09:20:13;;;;;;;24.98;11.63;;;;;;;-8.87;82.21;102759.78;7396627;19;20416;-68
2024/01/08 09:22:41;;;;;;;21.25;11.00;;;;;;;-8.85;82.34;102765.94;7396929;19;20011;-68
2024/01/08 09:25:12;;;;;;;16.23;10.18;;;;;;;-8.79;81.48;102766.47;7395441;19;20086;-68
2024/01/08 09:27:42;;;;;;;21.77;11.13;;;;;;;-8.74;83.69;102774.53;7397445;19;20014;-69
2024/01/08 09:30:11;;;;;;;18.67;11.02;;;;;;;-8.67;83.81;102779.38;7395828;19;20015;-69
2024/01/08 09:32:39;;;;;;;18.40;10.95;;;;;;;-8.58;84.48;102781.88;7397078;19;20015;-67
2024/01/08 09:35:09;;;;;;;19.65;10.98;;;;;;;-8.51;84.02;102776.56;7396336;19;20011;-68
2024/01/08 09:37:38;;;;;;;20.50;11.20;;;;;;;-8.45;84.58;102774.53;7394692;19;20031;-68
2024/01/08 09:40:10;;;;;;;21.98;11.48;;;;;;;-8.38;84.89;102781.03;7396048;19;20014;-68
2024/01/08 09:42:41;;;;;;;18.52;10.38;;;;;;;-8.33;84.13;102784.88;7396953;19;20014;-68
2024/01/08 09:45:13;;;;;;;20.05;10.50;;;;;;;-8.26;81.48;102786.34;7395125;19;20021;-68
2024/01/08 09:47:42;;;;;;;18.05;10.38;;;;;;;-8.24;81.76;102785.72;7395184;19;20091;-68
2024/01/08 09:50:13;;;;;;;16.67;9.40;;;;;;;-8.21;81.60;102780.88;7395437;19;20015;-67
2024/01/08 09:52:42;;;;;;;19.33;10.85;;;;;;;-8.16;82.73;102780.38;7394676;19;20019;-68
2024/01/08 09:55:11;;;;;;;20.05;10.90;;;;;;;-8.16;78.53;102783.84;7394433;19;20018;-67
2024/01/08 09:57:40;;;;;;;19.23;10.65;;;;;;;-8.13;79.91;102778.13;7395919;19;20325;-65
2024/01/08 10:00:11;;;;;;;15.45;10.18;;;;;;;-8.11;80.76;102777.47;7393614;19;20049;-65
2024/01/08 10:02:40;;;;;;;19.10;10.07;;;;;;;-8.05;82.19;102779.66;7396287;19;20015;-64
2024/01/08 10:05:09;;;;;;;19.95;10.95;;;;;;;-8.03;81.15;102786.66;7393458;19;20501;-65
2024/01/08 10:07:38;;;;;;;16.40;10.68;;;;;;;-7.99;79.87;102782.72;7395488;19;20090;-66
2024/01/08 10:10:07;;;;;;;19.23;9.98;;;;;;;-7.95;79.35;102784.78;7394629;19;20018;-67
2024/01/08 10:12:36;;;;;;;17.85;10.27;;;;;;;-7.93;78.97;102777.28;7395163;19;20375;-67
2024/01/08 10:15:18;;;;;;;19.23;10.35;;;;;;;-7.89;80.26;102781.88;7393937;19;20494;-68
2024/01/08 10:17:49;;;;;;;13.40;9.60;;;;;;;-7.85;77.15;102771.19;7394709;19;20014;-68
2024/01/08 10:20:19;;;;;;;16.50;9.77;;;;;;;-7.81;80.54;102778.31;7393417;19;20074;-67
2024/01/08 10:22:49;;;;;;;17.80;10.27;;;;;;;-7.78;79.72;102764.97;7395577;19;20028;-67
2024/01/08 10:25:23;;;;;;;21.33;10.80;;;;;;;-7.75;78.78;102761.00;7394910;19;20010;-67
2024/01/08 10:27:51;;;;;;;;;;;;;;;-7.70;78.68;102772.47;7394370;19;20017;-67
2024/01/08 10:30:22;;;;;;;15.48;10.38;;;;;;;-7.66;80.20;102768.53;7394348;19;20000;-65
2024/01/08 10:32:51;;;;;;;18.10;10.02;;;;;;;-7.65;79.85;102772.00;7395167;19;20015;-64
2024/01/08 10:35:20;;;;;;;19.33;10.18;;;;;;;-7.62;78.38;102762.97;7393531;19;20435;-69
2024/01/08 10:37:50;;;;;;;21.73;11.45;;;;;;;-7.57;80.76;102761.69;7393163;19;20015;-68
2024/01/08 10:40:19;;;;;;;16.50;9.25;;;;;;;-7.52;79.37;102762.06;7394145;19;20019;-68
2024/01/08 10:42:48;;;;;;;18.30;10.90;;;;;;;-7.47;80.01;102762.47;7394680;19;20016;-68
2024/01/08 10:45:16;;;;;;;16.00;10.25;;;;;;;-7.43;80.12;102760.31;7393113;19;20370;-68
2024/01/08 10:47:52;;;;;;;16.50;9.95;;;;;;;-7.39;77.81;102770.00;7394576;19;20027;-68
2024/01/08 10:50:22;;;;;;;19.27;10.63;;;;;;;-7.33;78.72;102766.16;7392580;19;20010;-68
2024/01/08 10:52:56;;;;;;;16.83;9.45;;;;;;;-7.30;78.14;102762.22;7396312;19;20014;-68
2024/01/08 10:55:25;;;;;;;14.48;10.30;;;;;;;-7.25;76.69;102762.59;7393256;19;20049;-68
2024/01/08 10:57:59;;;;;;;14.90;9.75;;;;;;;-7.19;80.80;102768.19;7397607;19;20022;-67
2024/01/08 11:00:27;;;;;;;17.60;10.38;;;;;;;-7.17;79.34;102766.69;7400112;19;20021;-67
2024/01/08 11:02:59;;;;;;;19.27;10.73;;;;;;;-7.11;78.72;102764.63;7399049;19;20027;-67
2024/01/08 11:05:30;;;;;;;15.63;10.25;;;;;;;-7.08;78.55;102759.78;7399282;19;20506;-67
2024/01/08 11:07:59;;;;;;;16.60;9.95;;;;;;;-7.03;80.47;102765.25;7402258;19;20018;-66
2024/01/08 11:10:30;;;;;;;20.05;10.52;;;;;;;-6.97;80.52;102770.00;7400045;19;20018;-68
2024/01/08 11:12:59;;;;;;;15.75;10.27;;;;;;;-6.94;77.47;102770.22;7401687;19;20038;-67
2024/01/08 11:15:28;;;;;;;19.02;10.02;;;;;;;-6.95;76.37;102753.13;7401444;19;20081;-68
2024/01/08 11:18:03;;;;;;;17.17;10.75;;;;;;;-6.89;76.21;102764.75;7400907;19;20035;-67
2024/01/08 11:20:46;;;;;;;14.68;8.70;;;;;;;-6.87;74.65;102770.84;7399682;19;20018;-67
2024/01/08 11:23:37;;;;;;;15.95;8.98;;;;;;;-6.85;74.11;102759.88;7401254;19;20410;-67